• Join FlightAware (Why Join?)
  • Login
  • US Flag 
02:10PM EST


 

Airport Tracker/Info


-or-


 

Live Flight TrackerFlight Track Log ✈ UCA4800 ✈ 30-Apr-2012 ✈ KERI - KCLE

Flight Track Log - Related Links

Times and Time Zones

All times are in EDT time to prevent confusion due to time zone crossing. See the UCA4800 flight status page for this flight to view local times or setup timezone preferences in your user account.

Time Position Orientation Groundspeed Altitude Reporting Facility
EDT Latitude Longitude Course Direction KTS MPH feet Rate Location/Type
09:56AM 42.0725 -80.1999 233° Southwest  Level FlightAware Approximate
09:57AM 42.0485 -80.2592 232° Southwest  Level FlightAware Approximate
09:58AM 42.0068 -80.2865 235° Southwest  Level FlightAware Approximate
09:59AM 41.9837 -80.3464 234° Southwest  Level FlightAware Approximate
10:00AM 41.9514 -80.3971 235° Southwest  Level FlightAware Approximate
10:01AM 41.9288 -80.4572 233° Southwest  Level FlightAware Approximate
10:02AM 41.9061 -80.5172 229° Southwest  Level FlightAware Approximate
10:03AM 41.8834 -80.5772 224° Southwest  Level FlightAware Approximate
10:04AM 41.7931 -80.6944 233° Southwest 239 275 8,000  Level Cleveland Center
10:05AM 41.7556 -80.7614 245° Southwest 237 273 8,000  Level Cleveland Center
10:06AM 41.7261 -80.8447 253° West 242 278 8,000 -60 Level Cleveland Center
10:07AM 41.7072 -80.9281 251° West 240 276 7,900 -600 Descending Cleveland Center
10:08AM 41.6819 -81.0281 246° West 241 277 6,800 -1,020 Descending Cleveland Center
10:09AM 41.6628 -81.0861 251° West 219 252 6,000 -300 Descending Cleveland Center
10:11AM 41.6225 -81.2386 252° West 205 236 6,000  Level Cleveland Center
10:12AM 41.6097 -81.2914 261° West 204 235 6,000 -360 Level Cleveland Center
10:13AM 41.6008 -81.3689 256° West 205 236 5,400 -540 Descending Cleveland Center
10:14AM 41.5878 -81.4411 256° West 209 241 5,000 -240 Descending Cleveland Center
10:15AM 41.5725 -81.5214 252° West 203 234 5,000 -60 Level Cleveland Center
10:16AM 41.5531 -81.6014 243° Southwest 217 250 4,900 -480 Descending Cleveland Center
10:17AM 41.5211 -81.6842 228° Southwest 215 247 4,000 -840 Descending Cleveland Center
10:18AM 41.4894 -81.7308 229° Southwest 187 215 3,200 -960 Descending Cleveland Center
10:19AM 41.4597 -81.7772 229° Southwest 158 182 2,200 -840 Descending Cleveland Center
10:20AM 41.4364 -81.8128 229° Southwest 133 153 1,600 -600 Descending Cleveland Center